Mirabile, Missouri
Current Conditions -  °F | °C
As of 4:15 AM on Wednesday 26 Nov 2014 (Local Time) from KGPH Reporting Station
Light Snow Light Snow  
Wind Chill: -2°   Ceiling: 1100
Heat Index:   Visibility: 1.7mi
Dew Point:   Wind: 7mph
Humidity: 93%   Direction: 190°S
Pressure: 29.96"   Gusts: NA
Location:  39.5693°N, 94.0956°W
Report Text: KGPH 261015Z AUTO 19006KT 1 3/4SM -SN OVC011 01/00 A2996 RMK AO2 VIS 1 1/2V3
Loading
Personal Weather Stations






























Interactive Weather Map New forecast layout! Learn more

10-Day Weather Forecast

Advertisements
Track Severe Weather on mobile